Time;durP1;ratioP1;P1;durP2;ratioP2;P2;SDS_P1;SDS_P2;PMS_P1;PMS_P2;Temp;Humidity;BMP_temperature;BMP_pressure;BME280_temperature;BME280_humidity;BME280_pressure;Samples;Min_cycle;Max_cycle;Signal;HPM_P1;HPM_P2
2021/12/31 00:00:39;;;;;;;23.73;13.47;;;;;;;4.84;100.00;95332.91;5088180;28;20348;-78
2021/12/31 00:03:07;;;;;;;19.60;12.40;;;;;;;4.74;100.00;95324.53;5090237;28;20220;-77
2021/12/31 00:05:35;;;;;;;23.57;13.77;;;;;;;4.79;100.00;95317.16;5087509;28;20203;-77
2021/12/31 00:08:02;;;;;;;22.53;13.30;;;;;;;4.73;100.00;95325.53;5092435;28;20223;-78
2021/12/31 00:10:31;;;;;;;24.27;14.37;;;;;;;4.79;100.00;95330.81;5088553;28;20727;-77
2021/12/31 00:12:58;;;;;;;22.57;13.77;;;;;;;4.72;100.00;95336.78;5091007;28;20201;-77
2021/12/31 00:15:28;;;;;;;28.03;15.27;;;;;;;4.67;100.00;95339.06;5093307;28;20656;-77
2021/12/31 00:17:56;;;;;;;24.67;14.00;;;;;;;4.56;100.00;95341.00;5091296;28;20667;-77
2021/12/31 00:20:25;;;;;;;21.60;13.30;;;;;;;4.56;100.00;95356.44;5089431;28;20208;-77
2021/12/31 00:23:07;;;;;;;25.53;14.97;;;;;;;4.54;100.00;95342.94;5091908;28;20208;-77
2021/12/31 00:25:53;;;;;;;25.37;14.03;;;;;;;4.66;100.00;95347.75;5093365;28;20675;-78
2021/12/31 00:28:32;;;;;;;24.50;14.07;;;;;;;4.75;100.00;95347.56;5085821;28;20236;-77
2021/12/31 00:31:01;;;;;;;23.97;14.70;;;;;;;4.72;100.00;95344.50;5092133;28;20314;-78
2021/12/31 00:33:31;;;;;;;24.20;14.50;;;;;;;4.70;100.00;95341.31;5090715;28;20640;-77
2021/12/31 00:35:59;;;;;;;22.63;14.10;;;;;;;4.63;100.00;95350.63;5087067;28;20308;-78
2021/12/31 00:38:27;;;;;;;26.20;14.77;;;;;;;4.66;100.00;95358.84;5094709;28;20273;-77
2021/12/31 00:40:55;;;;;;;24.23;14.57;;;;;;;4.78;100.00;95367.03;5092922;28;20230;-79
2021/12/31 00:43:23;;;;;;;28.13;15.53;;;;;;;4.76;100.00;95361.25;5094192;28;20604;-78
2021/12/31 00:45:54;;;;;;;29.10;15.93;;;;;;;4.70;100.00;95357.56;5094587;28;20633;-77
2021/12/31 00:48:24;;;;;;;26.43;15.20;;;;;;;4.80;100.00;95347.06;5091860;28;20225;-78
2021/12/31 00:50:53;;;;;;;27.30;15.33;;;;;;;4.83;100.00;95341.56;5095358;28;20651;-78
2021/12/31 00:53:21;;;;;;;25.33;14.60;;;;;;;4.73;100.00;95326.34;5096002;28;20215;-77
2021/12/31 00:55:50;;;;;;;25.33;14.93;;;;;;;4.54;100.00;95312.06;5090874;28;20724;-76
2021/12/31 00:58:18;;;;;;;22.97;14.30;;;;;;;4.55;100.00;95318.81;5089626;28;20692;-77
2021/12/31 01:00:46;;;;;;;23.40;14.17;;;;;;;4.62;100.00;95311.22;5088965;28;20204;-76
2021/12/31 01:03:15;;;;;;;24.20;13.80;;;;;;;4.64;100.00;95314.47;5089507;28;20208;-77
2021/12/31 01:05:45;;;;;;;23.77;14.23;;;;;;;4.67;100.00;95326.19;5094586;28;20213;-77
2021/12/31 01:08:13;;;;;;;24.60;13.50;;;;;;;4.69;100.00;95307.03;5089074;28;20274;-78
2021/12/31 01:10:41;;;;;;;23.80;12.83;;;;;;;4.80;100.00;95321.31;5088965;28;20224;-77
2021/12/31 01:13:16;;;;;;;19.57;11.90;;;;;;;4.78;100.00;95333.56;5089019;28;20326;-77
2021/12/31 01:15:46;;;;;;;18.83;10.67;;;;;;;4.72;100.00;95332.44;5089364;28;20273;-77
2021/12/31 01:19:43;;;;;;;19.37;11.37;;;;;;;4.75;100.00;95336.47;5080578;28;20695;-77
2021/12/31 01:21:17;;;;;;;18.77;10.00;;;;;;;4.73;100.00;95343.56;5087559;28;20705;-77
2021/12/31 01:23:47;;;;;;;14.27;9.20;;;;;;;4.65;100.00;95335.84;5091359;28;20215;-77
2021/12/31 01:26:17;;;;;;;14.50;9.40;;;;;;;4.62;100.00;95349.84;5090760;28;20654;-77
2021/12/31 01:28:46;;;;;;;16.70;9.67;;;;;;;4.71;100.00;95354.00;5088135;28;20240;-77
2021/12/31 01:31:14;;;;;;;15.53;9.63;;;;;;;4.79;100.00;95358.34;5087274;28;20236;-77
2021/12/31 01:33:43;;;;;;;16.83;9.97;;;;;;;4.83;100.00;95349.31;5094293;28;20230;-78
2021/12/31 01:36:13;;;;;;;15.30;9.27;;;;;;;4.86;100.00;95356.69;5088449;28;20211;-78
2021/12/31 01:38:45;;;;;;;14.07;8.43;;;;;;;4.83;100.00;95350.13;5097703;28;20220;-78
2021/12/31 01:41:14;;;;;;;15.43;9.80;;;;;;;4.74;100.00;95345.13;5089992;28;20250;-77
2021/12/31 01:43:43;;;;;;;15.83;9.67;;;;;;;4.74;100.00;95356.25;5100786;28;20574;-77
2021/12/31 01:46:12;;;;;;;17.43;9.57;;;;;;;4.67;100.00;95355.31;5093427;28;20243;-77
2021/12/31 01:49:01;;;;;;;14.83;9.47;;;;;;;4.53;100.00;95359.34;5089844;28;20232;-77
2021/12/31 01:51:31;;;;;;;17.93;9.87;;;;;;;4.61;100.00;95362.88;5093045;28;20208;-77
2021/12/31 01:54:00;;;;;;;17.53;9.73;;;;;;;4.59;100.00;95368.97;5094497;28;20743;-78
2021/12/31 01:56:33;;;;;;;17.10;9.97;;;;;;;4.51;100.00;95356.13;5098644;28;20557;-78
2021/12/31 01:59:04;;;;;;;16.03;10.17;;;;;;;4.63;100.00;95371.22;5097470;28;20261;-77
2021/12/31 02:01:32;;;;;;;18.23;11.30;;;;;;;4.64;100.00;95365.13;5094664;28;20208;-76
2021/12/31 02:04:05;;;;;;;17.73;10.83;;;;;;;4.64;100.00;95371.09;5100107;28;20634;-77
2021/12/31 02:06:36;;;;;;;19.03;10.90;;;;;;;4.67;100.00;95364.81;5103473;28;20207;-78
2021/12/31 02:09:07;;;;;;;17.00;10.97;;;;;;;4.56;100.00;95361.59;5090456;28;20266;-78
2021/12/31 02:11:36;;;;;;;19.10;11.17;;;;;;;4.70;100.00;95367.06;5105648;28;20284;-77
2021/12/31 02:14:06;;;;;;;17.53;10.57;;;;;;;4.66;100.00;95374.28;5106708;28;20284;-78
2021/12/31 02:16:36;;;;;;;15.80;9.47;;;;;;;4.75;100.00;95378.47;5101910;28;20213;-78
2021/12/31 02:19:13;;;;;;;16.27;9.83;;;;;;;4.62;100.00;95373.00;5095485;28;20243;-79
2021/12/31 02:21:50;;;;;;;14.37;9.30;;;;;;;4.51;100.00;95379.28;5099047;28;20228;-78
2021/12/31 02:24:22;;;;;;;15.77;9.87;;;;;;;4.52;100.00;95372.38;5102255;28;20299;-78
2021/12/31 02:26:53;;;;;;;16.50;9.63;;;;;;;4.43;100.00;95361.28;5094968;28;20263;-78
2021/12/31 02:29:24;;;;;;;16.60;9.60;;;;;;;4.45;100.00;95376.56;5099365;28;20798;-78
2021/12/31 02:31:52;;;;;;;16.37;8.90;;;;;;;4.41;100.00;95368.38;5094292;28;20208;-78
2021/12/31 02:34:21;;;;;;;14.03;8.73;;;;;;;4.37;100.00;95377.38;5101784;28;20204;-78
2021/12/31 02:36:54;;;;;;;14.40;8.77;;;;;;;4.58;100.00;95377.69;5097905;28;20352;-78
2021/12/31 02:39:23;;;;;;;14.23;9.57;;;;;;;4.70;100.00;95382.50;5102761;28;20207;-78
2021/12/31 02:41:51;;;;;;;15.53;10.03;;;;;;;4.57;100.00;95380.41;5097295;28;20208;-78
2021/12/31 02:44:20;;;;;;;17.73;10.20;;;;;;;4.50;100.00;95385.41;5099812;28;20232;-77
2021/12/31 02:46:50;;;;;;;14.70;10.00;;;;;;;4.42;100.00;95392.31;5095696;28;20204;-77
2021/12/31 02:49:23;;;;;;;15.67;9.03;;;;;;;4.45;100.00;95395.38;5094350;28;20209;-78
2021/12/31 02:52:02;;;;;;;13.50;9.07;;;;;;;4.40;100.00;95394.25;5100739;28;20200;-77
2021/12/31 02:54:32;;;;;;;17.17;9.73;;;;;;;4.38;100.00;95409.06;5092569;28;20272;-78
2021/12/31 02:57:00;;;;;;;14.27;9.33;;;;;;;4.37;100.00;95399.72;5098830;28;20433;-78
2021/12/31 02:59:28;;;;;;;16.77;9.83;;;;;;;4.41;100.00;95401.84;5088832;28;20204;-78
2021/12/31 03:01:58;;;;;;;13.67;9.23;;;;;;;4.44;100.00;95404.06;5105960;27;20659;-78
2021/12/31 03:04:27;;;;;;;15.07;9.20;;;;;;;4.45;100.00;95410.00;5093990;28;20205;-78
2021/12/31 03:06:59;;;;;;;18.33;9.50;;;;;;;4.42;100.00;95405.19;5106222;28;20732;-78
2021/12/31 03:09:28;;;;;;;14.90;9.17;;;;;;;4.35;100.00;95405.03;5106765;28;20603;-78
2021/12/31 03:11:59;;;;;;;14.47;9.50;;;;;;;4.41;100.00;95409.56;5099696;28;20246;-78
2021/12/31 03:14:30;;;;;;;15.23;9.90;;;;;;;4.48;100.00;95409.69;5094000;28;20201;-78
2021/12/31 03:17:00;;;;;;;14.50;9.20;;;;;;;4.38;100.00;95407.31;5106518;28;20205;-77
2021/12/31 03:19:29;;;;;;;15.47;9.37;;;;;;;4.35;100.00;95410.19;5106084;28;20930;-77
2021/12/31 03:21:59;;;;;;;16.93;9.60;;;;;;;4.35;100.00;95420.47;5105787;28;20235;-77
2021/12/31 03:24:29;;;;;;;16.60;9.47;;;;;;;4.36;100.00;95419.50;5103806;28;20713;-77
2021/12/31 03:26:58;;;;;;;17.27;9.97;;;;;;;4.29;100.00;95426.28;5095824;28;20266;-78
2021/12/31 03:29:26;;;;;;;16.17;9.20;;;;;;;4.36;100.00;95427.22;5092011;28;20704;-77
2021/12/31 03:31:55;;;;;;;13.67;8.97;;;;;;;4.42;100.00;95441.22;5092037;28;20208;-74
2021/12/31 03:34:24;;;;;;;14.63;9.23;;;;;;;4.42;100.00;95431.72;5087554;28;20208;-74
2021/12/31 03:36:58;;;;;;;15.47;9.17;;;;;;;4.51;100.00;95429.97;5090342;28;20253;-74
2021/12/31 03:39:29;;;;;;;15.03;9.07;;;;;;;4.55;100.00;95423.53;5088826;28;20279;-74
2021/12/31 03:41:58;;;;;;;14.10;8.83;;;;;;;4.58;100.00;95434.31;5085067;28;20203;-74
2021/12/31 03:44:27;;;;;;;16.10;9.87;;;;;;;4.53;100.00;95436.53;5093503;28;20345;-74
2021/12/31 03:46:56;;;;;;;16.63;9.00;;;;;;;4.59;100.00;95443.63;5090657;28;20214;-74
2021/12/31 03:49:26;;;;;;;14.87;9.07;;;;;;;4.58;100.00;95451.53;5090688;28;20255;-74
2021/12/31 03:51:54;;;;;;;15.37;9.57;;;;;;;4.67;100.00;95462.63;5090523;28;20663;-75
2021/12/31 03:54:22;;;;;;;16.77;9.60;;;;;;;4.48;100.00;95461.16;5089721;28;20211;-75
2021/12/31 03:56:53;;;;;;;14.20;8.73;;;;;;;4.44;100.00;95452.16;5090775;28;20224;-75
2021/12/31 03:59:21;;;;;;;12.50;7.87;;;;;;;4.38;100.00;95460.53;5091043;28;20623;-75
2021/12/31 04:01:50;;;;;;;13.27;8.33;;;;;;;4.26;100.00;95461.78;5090364;28;20576;-75
2021/12/31 04:04:18;;;;;;;13.30;8.40;;;;;;;4.25;100.00;95465.31;5090013;28;20209;-75
2021/12/31 04:06:50;;;;;;;13.23;7.60;;;;;;;4.05;100.00;95446.81;5089693;28;20204;-75
2021/12/31 04:09:18;;;;;;;12.67;7.80;;;;;;;4.05;100.00;95453.72;5095377;28;20220;-75
2021/12/31 04:11:48;;;;;;;13.20;8.67;;;;;;;4.05;100.00;95441.66;5090376;28;20687;-75
2021/12/31 04:14:18;;;;;;;14.30;9.00;;;;;;;4.07;100.00;95442.31;5090579;28;20202;-75
2021/12/31 04:16:46;;;;;;;14.07;8.80;;;;;;;4.05;100.00;95440.84;5090012;28;20205;-75
2021/12/31 04:19:14;;;;;;;14.20;9.20;;;;;;;4.00;100.00;95449.06;5088334;28;20205;-74
2021/12/31 04:21:44;;;;;;;15.17;9.07;;;;;;;3.97;100.00;95439.09;5089739;28;20208;-73
2021/12/31 04:24:27;;;;;;;17.77;10.30;;;;;;;3.88;100.00;95442.59;5090510;28;20196;-74
2021/12/31 04:26:56;;;;;;;16.23;9.77;;;;;;;3.98;100.00;95445.84;5088889;28;20204;-74
2021/12/31 04:29:26;;;;;;;16.77;9.00;;;;;;;4.13;100.00;95449.38;5089922;28;20227;-74
2021/12/31 04:31:56;;;;;;;14.97;9.47;;;;;;;4.23;100.00;95438.97;5089690;28;20224;-73
2021/12/31 04:34:25;;;;;;;19.07;9.97;;;;;;;4.33;100.00;95447.34;5090109;28;20192;-74
2021/12/31 04:36:58;;;;;;;14.60;9.40;;;;;;;4.30;100.00;95450.22;5089589;28;20327;-74
2021/12/31 04:39:28;;;;;;;16.27;9.80;;;;;;;4.28;100.00;95445.22;5091520;28;20664;-74
2021/12/31 04:41:57;;;;;;;21.13;10.93;;;;;;;4.34;100.00;95444.59;5089306;28;20212;-74
2021/12/31 04:44:27;;;;;;;20.53;11.77;;;;;;;4.36;100.00;95452.94;5089773;28;20727;-74
2021/12/31 04:46:55;;;;;;;17.50;10.70;;;;;;;4.26;100.00;95465.16;5092408;28;20248;-75
2021/12/31 04:49:24;;;;;;;17.00;10.37;;;;;;;4.28;100.00;95460.66;5089538;28;20228;-75
2021/12/31 04:51:52;;;;;;;16.33;9.90;;;;;;;4.35;100.00;95473.69;5089679;28;20203;-74
2021/12/31 04:54:20;;;;;;;16.07;9.97;;;;;;;4.40;100.00;95466.31;5090243;28;20250;-76
2021/12/31 04:56:53;;;;;;;15.77;10.30;;;;;;;4.20;100.00;95465.00;5090006;28;20205;-75
2021/12/31 04:59:22;;;;;;;15.80;9.27;;;;;;;4.01;100.00;95460.97;5090742;28;20200;-76
2021/12/31 05:01:51;;;;;;;12.77;8.43;;;;;;;3.84;100.00;95464.44;5085696;28;20736;-76
2021/12/31 05:04:20;;;;;;;13.50;9.03;;;;;;;3.75;100.00;95461.03;5082722;28;20204;-76
2021/12/31 05:06:50;;;;;;;14.10;8.93;;;;;;;3.79;100.00;95458.97;5089900;28;20255;-75
2021/12/31 05:09:21;;;;;;;15.43;9.40;;;;;;;3.93;100.00;95458.34;5089899;28;20221;-74
2021/12/31 05:11:49;;;;;;;16.43;10.20;;;;;;;3.85;100.00;95459.16;5089542;28;20200;-74
2021/12/31 05:14:18;;;;;;;16.10;9.80;;;;;;;3.77;100.00;95463.47;5091832;28;20575;-74
2021/12/31 05:16:48;;;;;;;15.30;9.47;;;;;;;3.77;100.00;95471.16;5093636;28;20215;-74
2021/12/31 05:19:19;;;;;;;18.10;9.90;;;;;;;3.85;100.00;95468.63;5091385;28;20613;-75
2021/12/31 05:21:47;;;;;;;18.07;11.13;;;;;;;3.82;100.00;95450.94;5095309;28;20200;-75
2021/12/31 05:24:16;;;;;;;19.03;11.63;;;;;;;3.97;100.00;95467.38;5093834;28;20204;-75
2021/12/31 05:26:47;;;;;;;20.57;12.23;;;;;;;4.01;100.00;95459.16;5093659;28;20213;-74
2021/12/31 05:29:15;;;;;;;19.87;11.30;;;;;;;4.05;100.00;95466.56;5093599;28;20286;-74
2021/12/31 05:31:45;;;;;;;21.87;12.20;;;;;;;4.05;100.00;95464.00;5100314;28;20209;-75
2021/12/31 05:34:13;;;;;;;20.73;11.90;;;;;;;4.09;100.00;95468.69;5093805;28;20201;-75
2021/12/31 05:36:43;;;;;;;21.90;12.17;;;;;;;4.09;100.00;95473.03;5092187;28;20204;-75
2021/12/31 05:39:13;;;;;;;24.03;13.70;;;;;;;4.18;100.00;95467.75;5092969;28;20192;-75
2021/12/31 05:41:41;;;;;;;27.10;15.50;;;;;;;4.28;100.00;95470.16;5090648;28;20208;-75
2021/12/31 05:44:10;;;;;;;31.97;17.77;;;;;;;4.19;100.00;95458.22;5093618;28;20201;-76
2021/12/31 05:46:44;;;;;;;30.07;17.03;;;;;;;4.29;100.00;95471.75;5094328;28;20786;-76
2021/12/31 05:49:11;;;;;;;39.43;20.37;;;;;;;4.35;100.00;95479.66;5092200;28;20209;-74
2021/12/31 05:51:42;;;;;;;42.20;20.30;;;;;;;4.29;100.00;95482.88;5098193;28;20295;-74
2021/12/31 05:54:10;;;;;;;37.27;19.90;;;;;;;4.24;100.00;95479.94;5089035;28;20728;-75
2021/12/31 05:56:39;;;;;;;26.10;15.53;;;;;;;4.25;100.00;95484.13;5097006;28;20228;-74
2021/12/31 05:59:07;;;;;;;29.57;15.27;;;;;;;4.32;100.00;95487.69;5093025;28;20295;-75
2021/12/31 06:01:35;;;;;;;26.70;15.20;;;;;;;4.40;100.00;95487.69;5093279;28;20291;-74
2021/12/31 06:04:04;;;;;;;24.97;14.97;;;;;;;4.42;100.00;95500.38;5092413;28;20247;-75
2021/12/31 06:06:33;;;;;;;32.73;16.67;;;;;;;4.44;100.00;95493.34;5092724;28;20212;-75
2021/12/31 06:09:07;;;;;;;31.10;17.90;;;;;;;4.51;100.00;95489.16;5092960;28;20217;-74
2021/12/31 06:11:36;;;;;;;33.53;17.63;;;;;;;4.58;100.00;95496.09;5092863;28;20751;-75
2021/12/31 06:14:05;;;;;;;34.40;18.67;;;;;;;4.65;100.00;95487.72;5091681;28;20296;-74
2021/12/31 06:16:37;;;;;;;27.10;15.73;;;;;;;4.64;100.00;95483.53;5093108;28;20298;-74
2021/12/31 06:19:07;;;;;;;30.13;15.60;;;;;;;4.75;100.00;95485.78;5092715;28;20189;-74
2021/12/31 06:21:37;;;;;;;24.67;13.60;;;;;;;4.75;100.00;95486.59;5091623;28;20220;-74
2021/12/31 06:24:09;;;;;;;22.50;12.90;;;;;;;4.80;100.00;95501.53;5092179;28;20304;-74
2021/12/31 06:26:37;;;;;;;20.87;12.07;;;;;;;4.63;100.00;95502.50;5091885;28;20212;-74
2021/12/31 06:29:06;;;;;;;33.87;17.83;;;;;;;4.52;100.00;95509.59;5095753;28;20233;-74
2021/12/31 06:31:37;;;;;;;46.73;25.83;;;;;;;4.41;100.00;95502.19;5091936;28;20659;-75
2021/12/31 06:34:05;;;;;;;44.90;24.23;;;;;;;4.35;100.00;95505.38;5093547;28;20648;-75
2021/12/31 06:36:32;;;;;;;29.07;17.20;;;;;;;4.35;100.00;95515.69;5091361;28;20237;-75
2021/12/31 06:39:02;;;;;;;21.23;13.47;;;;;;;4.40;100.00;95523.72;5092784;28;20201;-75
2021/12/31 06:41:33;;;;;;;26.27;14.93;;;;;;;4.44;100.00;95524.22;5098785;28;20204;-75
2021/12/31 06:44:02;;;;;;;24.63;14.83;;;;;;;4.33;100.00;95532.25;5092454;28;20216;-74
2021/12/31 06:46:30;;;;;;;21.60;12.90;;;;;;;4.35;100.00;95518.25;5097932;28;20200;-74
2021/12/31 06:49:00;;;;;;;21.17;13.00;;;;;;;4.32;100.00;95525.47;5092535;28;20302;-74
2021/12/31 06:51:29;;;;;;;21.80;13.07;;;;;;;4.42;100.00;95519.22;5093003;28;20228;-75
2021/12/31 06:53:59;;;;;;;21.70;12.50;;;;;;;4.51;100.00;95518.25;5091987;28;20197;-75
2021/12/31 06:56:27;;;;;;;21.70;12.57;;;;;;;4.58;100.00;95521.00;5091648;28;20208;-75
2021/12/31 06:58:58;;;;;;;20.57;12.73;;;;;;;4.72;100.00;95514.41;5091366;28;20196;-75
2021/12/31 07:01:27;;;;;;;19.60;12.00;;;;;;;4.86;100.00;95518.91;5091084;28;20605;-74
2021/12/31 07:03:55;;;;;;;16.57;10.30;;;;;;;4.94;100.00;95516.34;5090837;28;20256;-75
2021/12/31 07:06:23;;;;;;;16.87;10.13;;;;;;;5.01;100.00;95512.97;5091443;28;20691;-75
2021/12/31 07:08:52;;;;;;;13.47;8.57;;;;;;;5.08;100.00;95510.53;5091103;28;20224;-75
2021/12/31 07:11:23;;;;;;;12.97;7.63;;;;;;;5.10;100.00;95521.50;5092725;28;20201;-75
2021/12/31 07:13:54;;;;;;;13.47;7.53;;;;;;;5.15;100.00;95524.38;5090406;28;20222;-75
2021/12/31 07:16:25;;;;;;;15.20;8.97;;;;;;;5.32;100.00;95520.00;5091897;28;20289;-75
2021/12/31 07:18:52;;;;;;;25.30;14.37;;;;;;;5.31;100.00;95516.63;5086642;28;20204;-75
2021/12/31 07:21:21;;;;;;;31.77;18.33;;;;;;;5.34;100.00;95511.13;5090041;28;20201;-74
2021/12/31 07:23:50;;;;;;;37.30;21.50;;;;;;;5.44;100.00;95516.91;5091245;28;20601;-75
2021/12/31 07:26:18;;;;;;;43.10;24.17;;;;;;;5.47;100.00;95518.34;5091662;28;20204;-74
2021/12/31 07:28:46;;;;;;;38.37;21.00;;;;;;;5.63;100.00;95520.88;5090837;28;20255;-74
2021/12/31 07:31:14;;;;;;;35.20;18.70;;;;;;;5.76;100.00;95512.63;5090551;28;20204;-75
2021/12/31 07:33:45;;;;;;;22.40;13.17;;;;;;;5.82;100.00;95506.81;5091482;28;20222;-74
2021/12/31 07:36:13;;;;;;;25.37;14.27;;;;;;;5.91;100.00;95516.16;5090190;28;20197;-75
2021/12/31 07:38:49;;;;;;;30.97;18.40;;;;;;;5.96;100.00;95514.69;5090998;28;20205;-74
2021/12/31 07:41:18;;;;;;;22.30;12.70;;;;;;;6.00;100.00;95510.78;5090895;28;20205;-75
2021/12/31 07:43:47;;;;;;;21.90;12.80;;;;;;;6.07;100.00;95510.91;5089981;28;20202;-73
2021/12/31 07:46:14;;;;;;;28.17;15.57;;;;;;;6.11;100.00;95514.78;5089860;28;20697;-75
2021/12/31 07:48:45;;;;;;;23.80;14.63;;;;;;;6.07;100.00;95514.28;5090012;28;20634;-76
2021/12/31 07:51:13;;;;;;;26.67;16.07;;;;;;;5.99;100.00;95516.91;5090069;28;20207;-76
2021/12/31 07:53:43;;;;;;;21.23;12.80;;;;;;;5.94;100.00;95514.06;5091656;28;20206;-75
2021/12/31 07:56:14;;;;;;;18.43;11.67;;;;;;;6.03;100.00;95530.28;5093415;27;20211;-76
2021/12/31 07:58:43;;;;;;;14.87;9.50;;;;;;;6.08;100.00;95523.66;5089749;28;20292;-77
2021/12/31 08:01:10;;;;;;;15.27;8.63;;;;;;;6.22;100.00;95524.72;5090212;28;20209;-77
2021/12/31 08:03:40;;;;;;;14.00;8.37;;;;;;;6.35;100.00;95532.69;5088744;28;20227;-76
2021/12/31 08:06:12;;;;;;;13.90;8.90;;;;;;;6.47;100.00;95536.50;5091240;28;20204;-75
2021/12/31 08:08:43;;;;;;;13.07;7.60;;;;;;;6.57;100.00;95538.88;5089351;28;20245;-75
2021/12/31 08:11:15;;;;;;;12.57;7.77;;;;;;;6.62;100.00;95537.38;5093645;28;20931;-75
2021/12/31 08:13:44;;;;;;;11.30;7.70;;;;;;;6.65;100.00;95541.38;5089497;28;20233;-74
2021/12/31 08:16:13;;;;;;;12.77;7.90;;;;;;;6.67;100.00;95544.59;5085485;28;20206;-76
2021/12/31 08:18:42;;;;;;;13.93;8.67;;;;;;;6.69;100.00;95540.09;5096762;28;20207;-78
2021/12/31 08:21:12;;;;;;;16.23;9.37;;;;;;;6.76;100.00;95539.22;5081014;28;20195;-75
2021/12/31 08:23:43;;;;;;;18.67;9.20;;;;;;;6.83;100.00;95553.06;5096832;28;20200;-75
2021/12/31 08:26:12;;;;;;;17.20;10.20;;;;;;;6.93;100.00;95552.00;5089119;28;20203;-75
2021/12/31 08:28:45;;;;;;;14.23;9.43;;;;;;;6.96;100.00;95542.13;5088463;28;20320;-74
2021/12/31 08:31:14;;;;;;;17.13;9.70;;;;;;;7.02;100.00;95535.47;5089130;28;20204;-75
2021/12/31 08:33:44;;;;;;;17.13;9.67;;;;;;;6.98;100.00;95542.78;5094513;28;20679;-75
2021/12/31 08:36:14;;;;;;;15.47;9.67;;;;;;;6.90;100.00;95539.44;5086527;28;20197;-77
2021/12/31 08:38:44;;;;;;;15.87;9.93;;;;;;;6.92;100.00;95529.75;5089245;28;20269;-74
2021/12/31 08:41:12;;;;;;;17.20;9.63;;;;;;;6.92;100.00;95527.97;5089382;28;20210;-71
2021/12/31 08:43:39;;;;;;;16.67;10.33;;;;;;;6.84;100.00;95528.81;5093599;28;20235;-71
2021/12/31 08:46:07;;;;;;;15.73;10.10;;;;;;;6.75;100.00;95518.72;5093689;28;20221;-73
2021/12/31 08:48:34;;;;;;;14.83;9.77;;;;;;;6.77;100.00;95527.09;5091053;28;20288;-71
2021/12/31 08:51:03;;;;;;;14.47;9.53;;;;;;;6.78;100.00;95524.34;5089195;28;20225;-72
2021/12/31 08:53:35;;;;;;;16.07;9.93;;;;;;;6.79;100.00;95515.63;5090031;28;20299;-80
2021/12/31 08:56:04;;;;;;;14.40;9.33;;;;;;;6.70;100.00;95518.44;5092260;28;20207;-78
2021/12/31 08:58:33;;;;;;;16.70;9.13;;;;;;;6.74;100.00;95517.94;5091166;28;20245;-81
2021/12/31 09:01:01;;;;;;;15.07;9.30;;;;;;;6.73;100.00;95513.72;5094558;28;20292;-80
2021/12/31 09:03:31;;;;;;;18.03;10.13;;;;;;;6.69;100.00;95503.94;5097334;28;20235;-79
2021/12/31 09:06:01;;;;;;;17.97;10.60;;;;;;;6.65;100.00;95508.63;5096108;28;20557;-79
2021/12/31 09:08:29;;;;;;;15.37;10.10;;;;;;;6.74;100.00;95499.84;5101540;28;20214;-79
2021/12/31 09:11:01;;;;;;;19.17;10.63;;;;;;;6.69;100.00;95480.69;5089891;28;20220;-81
2021/12/31 09:13:32;;;;;;;16.83;11.03;;;;;;;6.78;100.00;95495.16;5100286;28;20196;-80
2021/12/31 09:16:01;;;;;;;20.17;12.07;;;;;;;6.73;100.00;95487.91;5089130;28;20207;-79
2021/12/31 09:18:30;;;;;;;15.83;9.97;;;;;;;6.83;100.00;95492.84;5095491;28;20626;-80
2021/12/31 09:20:58;;;;;;;16.93;9.87;;;;;;;6.90;100.00;95485.97;5091058;28;20198;-79
2021/12/31 09:23:27;;;;;;;16.97;10.83;;;;;;;7.05;100.00;95493.75;5094645;28;20245;-78
2021/12/31 09:25:55;;;;;;;17.07;10.33;;;;;;;7.14;100.00;95497.88;5096772;28;20994;-80
2021/12/31 09:28:27;;;;;;;17.17;10.77;;;;;;;7.15;100.00;95481.41;5095514;28;20272;-78
2021/12/31 09:31:00;;;;;;;18.43;11.17;;;;;;;7.22;100.00;95493.44;5096209;28;20284;-80
2021/12/31 09:33:30;;;;;;;16.23;10.27;;;;;;;7.31;100.00;95489.81;5096872;28;20200;-81
2021/12/31 09:35:58;;;;;;;18.03;10.27;;;;;;;7.44;100.00;95489.97;5103175;28;20221;-80
2021/12/31 09:38:25;;;;;;;18.43;11.00;;;;;;;7.59;100.00;95495.16;5095164;28;20283;-78
2021/12/31 09:40:55;;;;;;;19.63;9.97;;;;;;;7.78;100.00;95499.81;5087522;28;20196;-73
2021/12/31 09:43:25;;;;;;;16.83;9.63;;;;;;;8.02;100.00;95503.09;5086361;28;20197;-75
2021/12/31 09:45:55;;;;;;;18.97;9.70;;;;;;;8.20;100.00;95493.94;5088451;28;20251;-76
2021/12/31 09:48:24;;;;;;;20.53;11.27;;;;;;;8.40;100.00;95489.78;5101338;28;20682;-82
2021/12/31 09:50:54;;;;;;;16.90;9.90;;;;;;;8.51;98.36;95483.34;5095707;28;20247;-82
2021/12/31 09:53:26;;;;;;;18.77;10.33;;;;;;;8.63;98.29;95484.44;5091597;28;20197;-83
2021/12/31 09:55:57;;;;;;;17.17;10.10;;;;;;;8.74;98.25;95483.16;5087868;28;20338;-79
2021/12/31 09:58:29;;;;;;;15.27;10.20;;;;;;;9.04;96.74;95482.00;5086202;28;20246;-77
2021/12/31 10:01:01;;;;;;;14.50;9.33;;;;;;;10.04;92.68;95477.22;5098895;28;20238;-78
2021/12/31 10:03:31;;;;;;;21.57;10.63;;;;;;;11.62;85.60;95478.19;5097738;28;20200;-79
2021/12/31 10:06:01;;;;;;;17.13;9.70;;;;;;;13.49;78.97;95469.75;5101161;28;20288;-78
2021/12/31 10:08:30;;;;;;;14.17;8.97;;;;;;;15.03;73.19;95472.69;5102429;28;20279;-83
2021/12/31 10:11:09;;;;;;;18.33;9.07;;;;;;;15.95;69.68;95452.78;5098643;28;20281;-82
2021/12/31 10:13:41;;;;;;;15.50;8.10;;;;;;;15.78;68.19;95460.56;5097469;28;20208;-77
2021/12/31 10:16:20;;;;;;;16.00;9.70;;;;;;;15.11;70.89;95454.03;5092414;28;20648;-76
2021/12/31 10:19:04;;;;;;;14.17;8.90;;;;;;;14.49;70.87;95450.13;5092075;28;20607;-77
2021/12/31 10:21:38;;;;;;;14.80;7.60;;;;;;;13.68;75.99;95444.47;5092636;28;20262;-76
2021/12/31 10:24:34;;;;;;;14.67;7.77;;;;;;;13.05;76.27;95445.41;5092678;28;20207;-77
2021/12/31 10:27:05;;;;;;;10.57;6.57;;;;;;;12.73;78.80;95443.03;5092066;28;20204;-76
2021/12/31 10:29:53;;;;;;;11.93;6.87;;;;;;;12.53;79.48;95433.53;5091591;28;20321;-75
2021/12/31 10:32:22;;;;;;;12.17;6.87;;;;;;;12.31;79.63;95434.88;5096161;28;20262;-77
2021/12/31 10:34:52;;;;;;;9.50;6.40;;;;;;;12.08;80.42;95428.59;5090310;28;20195;-77
2021/12/31 10:37:23;;;;;;;11.20;6.63;;;;;;;11.92;81.58;95427.22;5092894;28;20213;-80
2021/12/31 10:39:57;;;;;;;11.90;6.60;;;;;;;11.80;82.59;95424.47;5089284;28;20196;-71
2021/12/31 10:42:31;;;;;;;13.10;6.90;;;;;;;11.72;82.46;95418.69;5090103;28;20211;-70
2021/12/31 10:45:02;;;;;;;14.70;8.20;;;;;;;11.55;83.24;95418.31;5084665;28;20261;-71
2021/12/31 10:47:33;;;;;;;14.73;8.47;;;;;;;11.29;84.08;95413.97;5090198;28;20208;-71
2021/12/31 10:50:16;;;;;;;16.83;9.70;;;;;;;10.88;86.06;95400.41;5094459;28;20444;-71
2021/12/31 10:52:53;;;;;;;17.13;10.07;;;;;;;10.70;86.79;95403.66;5090227;28;20447;-70
2021/12/31 10:55:27;;;;;;;13.60;7.13;;;;;;;10.71;87.47;95402.63;5092386;28;20853;-80
2021/12/31 10:57:57;;;;;;;12.40;7.17;;;;;;;10.67;88.40;95400.63;5098245;28;20207;-81
2021/12/31 11:00:28;;;;;;;12.53;7.50;;;;;;;10.71;87.74;95405.22;5099651;28;20220;-80
2021/12/31 11:02:58;;;;;;;14.67;8.57;;;;;;;10.75;87.70;95413.44;5110085;28;20193;-82
2021/12/31 11:05:26;;;;;;;12.17;8.40;;;;;;;10.73;88.00;95405.03;5100989;28;20211;-80
2021/12/31 11:07:56;;;;;;;15.93;8.33;;;;;;;10.68;88.13;95407.41;5095897;28;20200;-86
2021/12/31 11:10:27;;;;;;;16.80;8.37;;;;;;;10.72;88.38;95406.03;5093084;28;20216;-84
2021/12/31 11:12:54;;;;;;;14.50;8.00;;;;;;;10.61;88.39;95402.25;5105342;28;20189;-84
2021/12/31 11:15:23;;;;;;;17.23;8.20;;;;;;;10.55;88.56;95404.81;5092572;28;20782;-85
2021/12/31 11:17:53;;;;;;;15.37;8.67;;;;;;;10.33;90.02;95408.59;5088339;28;20204;-84
2021/12/31 11:20:23;;;;;;;24.87;11.63;;;;;;;10.11;90.51;95405.31;5104743;28;20230;-85
2021/12/31 11:22:52;;;;;;;22.40;12.60;;;;;;;9.79;92.17;95399.03;5087160;28;20200;-86
2021/12/31 11:25:25;;;;;;;25.53;14.23;;;;;;;9.82;93.40;95408.22;5089985;28;20211;-71
2021/12/31 11:27:54;;;;;;;25.57;11.53;;;;;;;9.78;93.67;95404.44;5088655;28;20192;-71
2021/12/31 11:30:32;;;;;;;19.97;11.53;;;;;;;9.86;93.45;95415.44;5095192;28;20212;-71
2021/12/31 11:33:07;;;;;;;21.00;12.80;;;;;;;9.75;94.42;95408.22;5087312;28;20184;-71
2021/12/31 11:35:40;;;;;;;17.73;10.63;;;;;;;9.66;94.91;95402.38;5088424;28;20200;-71